Tiempo atmosférico en la estación meteorológica de Eivissa Aeropuerto, Illes Balears (6 m.)

Fecha
DESCASC
Temp. máxima en grados centígrados (hora)
DESCASC
Temp. mínima en grados centígrados (hora)
DESCASC
Temp. media en grados centígrados
DESCASC
Racha de viento máxima en m/sg (hora)
DESCASC
Velocidad máxima media en intervalos de 10 minutos(hora)
DESCASC
Precipitaciones diarias en mm
DESCASC
Precipitaciones de 00:00 a 06:00 en mm
DESCASC
Precipitaciones de 06:00 a 12:00 en mm
DESCASC
Precipitaciones de 12:00 a 18:00 en mm
DESCASC
Precipitaciones de 18:00 a 24:00 en mm
DESCASC

Gráficas

Temp. máximas Temp. mínimas Temp. medias Precipitaciones Rachas de viento máximas Velocidades máximas media en intervalos de 10 minutos

Datos horarios

Fecha y hora oficial Temperatura (ºC) Velocidad del viento (km/h) Dirección del viento Racha (km/h) Dirección de racha Precipitación (mm) Presión (hPa) Tendencia (hPa) Humedad (%)
2017-08-17 23:00:00 26.1 10 Este 15 Este 0 1016.1 0.5 82
2017-08-17 22:00:00 26.4 11 Este 17 Este 0 1015.8 0.2 77
2017-08-17 21:00:00 26.9 12 Este 17 Nordeste 0 1015.6 -0.1 76
2017-08-17 20:00:00 27.8 9 Nordeste 15 Este 0 1015.6 -0.5 72
2017-08-17 19:00:00 28.1 9 Nordeste 15 Nordeste 0 1015.6 -0.6 76
2017-08-17 18:00:00 28.4 9 Este 17 Este 0 1015.7 -1 74
2017-08-17 17:00:00 28.6 10 Este 18 Este 0 1016.1 -0.8 68
2017-08-17 16:00:00 30 12 Este 21 Este 0 1016.2 -0.8 62
2017-08-17 15:00:00 29.2 12 Este 18 Este 0 1016.7 -0.5 67
2017-08-17 14:00:00 30.5 11 Este 18 Este 0 1016.9 -0.1 49
2017-08-17 13:00:00 29.8 12 Este 22 Este 0 1017 0.2 68
2017-08-17 12:00:00 29.2 15 Este 24 Este 0 1017.2 1 75
2017-08-17 11:00:00 28.3 14 Este 21 Norte 0 1017 1.1 80
2017-08-17 10:00:00 27.7 10 Este 21 Norte 0 1016.8 1.4 81
2017-08-17 09:00:00 27.2 9 Nordeste 28 Norte 0 1016.2 0.8 81
2017-08-17 08:00:00 25.4 5 Nordeste 13 Este 0 1015.9 0.6 87
2017-08-17 07:00:00 24.8 4 Nordeste 13 Nordeste 0 1015.4 -0.1 88
2017-08-17 06:00:00 24.8 6 Nordeste 11 Nordeste 0 1015.4 -0.6 89
2017-08-17 05:00:00 25.1 7 Norte 13 Norte 0 1015.3 -0.8 89
2017-08-17 04:00:00 23.5 3 Este 13 Noroeste 0 1015.5 -0.7 90
2017-08-17 03:00:00 24.1 9 Noroeste 11 Noroeste 0 1016 -0.1 85
2017-08-17 02:00:00 23.8 4 Noroeste 13 Norte 0 1016.1 0.4 86
2017-08-17 01:00:00 24.2 6 Noroeste 9 Norte 0 1016.2 1 88
2017-08-17 00:00:00 25.2 0 Calma 17 Nordeste 0 1016.1 1.4 87
2017-08-16 23:00:00 26.3 10 Norte 26 Norte 0 1015.7 1.2 85
2017-08-16 22:00:00 26.4 9 Nordeste 21 Este 0 1015.2 0.5 85
2017-08-16 21:00:00 27.3 13 Este 21 Este 0 1014.7 -0.4 81
2017-08-16 20:00:00 27.5 15 Este 21 Este 0 1014.5 -0.7 80
2017-08-16 19:00:00 28.1 14 Este 21 Nordeste 0 1014.7 -0.6 78
2017-08-16 18:00:00 28.6 11 Este 17 Norte 0 1015.1 -0.6 77
2017-08-16 17:00:00 28.7 11 Este 18 Norte 0 1015.2 -0.6 77
2017-08-16 16:00:00 29.4 13 Este 22 Este 0 1015.3 -0.9 74
2017-08-16 15:00:00 30.2 13 Este 21 Este 0 1015.7 -0.7 68
2017-08-16 14:00:00 29.4 11 Este 21 Este 0 1015.8 -0.4 69
2017-08-16 13:00:00 28.6 9 Este 18 Sur 0 1016.2 0.4 77
2017-08-16 12:00:00 28.9 9 Sur 21 Oeste 0 1016.4 0.6 75
2017-08-16 11:00:00 29.4 10 Este 15 Este 0 1016.2 0.7 69
2017-08-16 10:00:00 28.4 7 Nordeste 17 Nordeste 0 1015.8 0.5 73
2017-08-16 09:00:00 26.8 11 Nordeste 24 Norte 0 1015.8 0.9 83
2017-08-16 08:00:00 25.4 9 Norte 13 Norte 0 1015.5 0.6 90
2017-08-16 07:00:00 25.2 11 Norte 24 Norte 0 1015.3 0 91
2017-08-16 06:00:00 24.5 8 Norte 11 Nordeste 0 1014.9 -0.6 91
2017-08-16 05:00:00 24.7 7 Norte 11 Norte 0 1014.9 -0.8 91
2017-08-16 04:00:00 25 8 Norte 22 Norte 0 1015.3 -0.3 90
2017-08-16 03:00:00 26.1 8 Norte 13 Nordeste 0 1015.5 0.3 89
2017-08-16 02:00:00 26.3 10 Nordeste 18 Este 0 1015.7 0 88
2017-08-16 01:00:00 25.8 12 Nordeste 22 Nordeste 0 1015.6 0.2 87
2017-08-16 00:00:00 25.8 16 Nordeste 24 Norte 0 1015.2 0.4 86
2017-08-15 23:00:00 26.2 13 Nordeste 30 Norte 0 1015.7 1.7 84
2017-08-15 22:00:00 26.6 15 Nordeste 22 Nordeste 0 1015.4 1 82
2017-08-15 21:00:00 27.1 15 Nordeste 26 Este 0 1014.8 0.4 81
2017-08-15 20:00:00 27.5 15 Este 26 Este 0 1014 -0.9 84
2017-08-15 19:00:00 27.8 14 Nordeste 30 Este 0 1014.4 -0.7 84
2017-08-15 18:00:00 28.6 18 Este 28 Nordeste 0 1014.4 -1.1 79
2017-08-15 17:00:00 28.9 15 Nordeste 30 Nordeste 0 1014.9 -0.8 77
2017-08-15 16:00:00 29.1 22 Este 32 Nordeste 0 1015.1 -0.9 75
2017-08-15 15:00:00 29 21 Este 37 Este 0 1015.5 -0.8 76
2017-08-15 14:00:00 28.9 25 Nordeste 37 Nordeste 0 1015.7 -0.6 75
2017-08-15 13:00:00 27.9 23 Este 32 Nordeste 0 1016 0.1 79
2017-08-15 12:00:00 28.4 20 Este 30 Nordeste 0 1016.3 0.5 75
2017-08-15 11:00:00 27.8 21 Nordeste 33 Nordeste 0 1016.3 0.7 76
2017-08-15 10:00:00 27.1 22 Nordeste 32 Nordeste 0 1015.9 1.2 79
2017-08-15 09:00:00 26.2 20 Nordeste 30 Nordeste 0 1015.8 1.5 83
2017-08-15 08:00:00 25.5 19 Nordeste 30 Nordeste 0 1015.6 1.4 85
2017-08-15 07:00:00 24.7 13 Nordeste 21 Nordeste 0 1014.7 0.6 87
2017-08-15 06:00:00 24.2 12 Norte 18 Nordeste 0 1014.3 -1 88
2017-08-15 05:00:00 24.6 15 Nordeste 24 Nordeste 0 1014.2 -2.2 87
2017-08-15 04:00:00 25.1 13 Norte 24 Nordeste 0 1014.1 -2.2 85
2017-08-15 03:00:00 25.7 13 Este 22 Este 0 1015.3 -0.5 84
2017-08-15 02:00:00 25.9 13 Este 26 Este 0 1016.4 0.4 82
2017-08-15 01:00:00 26 14 Este 24 Este 0 1016.3 1 82
2017-08-15 00:00:00 26 13 Este 22 Este 0 1015.8 1.2 83
2017-08-14 23:00:00 26 14 Nordeste 26 Este 0 1016 2.4 80
2017-08-14 22:00:00 25.8 17 Este 28 Nordeste 0 1015.3 1.9 76
2017-08-14 21:00:00 25.9 15 Nordeste 28 Nordeste 0 1014.6 1 74
2017-08-14 20:00:00 26.7 18 Nordeste 41 Nordeste 0 1013.6 -1.6 67
2017-08-14 19:00:00 27.3 26 Nordeste 45 Este 0 1013.4 -2.3 67
2017-08-14 18:00:00 26.7 28 Nordeste 41 Este 0 1013.6 -3 69
2017-08-14 17:00:00 27.7 19 Este 30 Este 0 1015.2 -1.4 65
2017-08-14 16:00:00 28.3 19 Este 28 Este 0 1015.7 -0.5 63
2017-08-14 15:00:00 28.4 18 Este 32 Este 0 1016.6 0.3 63
2017-08-14 14:00:00 27.9 18 Este 33 Este 0 1016.6 0.4 66
2017-08-14 13:00:00 27.6 23 Nordeste 41 Este 0 1016.2 0.1 66
2017-08-14 12:00:00 26.7 20 Nordeste 32 Nordeste 0 1016.3 0.5 67
2017-08-14 11:00:00 27 20 Nordeste 30 Este 0 1016.2 1.2 66
2017-08-14 10:00:00 26.2 18 Este 30 Este 0 1016.1 1 69
2017-08-14 09:00:00 25.3 19 Nordeste 30 Este 0 1015.8 0.5 72
2017-08-14 08:00:00 23.3 14 Nordeste 22 Nordeste 0 1015 0.2 76
2017-08-14 07:00:00 22 10 Nordeste 15 Nordeste 0 1015.1 0 83
2017-08-14 06:00:00 22.6 6 Norte 15 Norte 0 1015.3 -0.1 81
2017-08-14 05:00:00 23.1 11 Norte 17 Norte 0 1014.8 -0.9 79
2017-08-14 04:00:00 23.4 13 Norte 21 Nordeste 0 1015.1 -0.8 76
2017-08-14 03:00:00 24.5 14 Este 24 Este 0 1015.4 -0.8 72
2017-08-14 02:00:00 24.7 14 Este 26 Este 0 1015.7 -0.6 72
2017-08-14 01:00:00 24.7 17 Este 30 Este 0 1015.9 0.2 73
2017-08-14 00:00:00 24.9 16 Este 26 Este 0 1016.2 0.9 70
2017-08-13 23:00:00 25 16 Este 30 Este 0 1016.3 1 69
2017-08-13 22:00:00 25.1 17 Este 26 Este 0 1015.7 0.2 68
2017-08-13 21:00:00 25.2 14 Este 24 Este 0 1015.3 -0.7 69
2017-08-13 20:00:00 26.1 14 Este 24 Este 0 1015.3 -1.1 66
2017-08-13 19:00:00 26.7 17 Este 28 Este 0 1015.5 -1.2 62
2017-08-13 18:00:00 27.4 17 Este 28 Este 0 1016 -1.2 58
2017-08-13 17:00:00 27.5 17 Este 28 Este 0 1016.4 -1.2 59
2017-08-13 16:00:00 27.7 17 Este 28 Este 0 1016.7 -1.2 58
2017-08-13 15:00:00 27.7 15 Este 28 Este 0 1017.2 -0.8 58
2017-08-13 14:00:00 27.3 15 Este 26 Este 0 1017.6 -0.4 59
2017-08-13 13:00:00 27.3 14 Este 24 Norte 0 1017.9 0.1 58
2017-08-13 12:00:00 26.7 14 Nordeste 24 Este 0 1018 0.5 60
2017-08-13 11:00:00 26.7 14 Este 24 Este 0 1018 1 60
2017-08-13 10:00:00 25.6 10 Este 22 Este 0 1017.8 1 67
2017-08-13 09:00:00 24.5 8 Nordeste 17 Nordeste 0 1017.5 0.8 72
2017-08-13 08:00:00 21.4 3 Norte 13 Norte 0 1017 0.1 85
2017-08-13 07:00:00 20.9 5 Norte 17 Norte 0 1016.8 -0.2 85
2017-08-13 06:00:00 21 5 Norte 15 Norte 0 1016.7 -0.8 85
2017-08-13 05:00:00 21.2 7 Norte 11 Norte 0 1016.9 -0.9 84
2017-08-13 04:00:00 21.4 10 Norte 11 Norte 0 1017 -1.3 84
2017-08-13 03:00:00 21.7 8 Noroeste 13 Este 0 1017.5 -1.3 82
2017-08-13 02:00:00 23.4 7 Este 15 Sudeste 0 1017.8 -1.1 74
2017-08-13 01:00:00 23.7 9 Este 15 Sudeste 0 1018.3 -0.4 73
2017-08-13 00:00:00 24.3 9 Sudeste 17 Sudeste 0 1018.8 0.7 70
2017-08-12 23:00:00 24.4 10 Sudeste 17 Sur 0 1018.9 0.9 68
2017-08-12 22:00:00 24.9 8 Sudeste 15 Sudeste 0 1018.7 0.7 68
2017-08-12 21:00:00 25.2 11 Sur 22 Sur 0 1018.1 -0.1 70
2017-08-12 20:00:00 25.9 10 Sudeste 21 Este 0 1018 -0.3 67
2017-08-12 19:00:00 26.8 13 Este 24 Sudeste 0 1018 -0.6 61
2017-08-12 18:00:00 27.4 14 Este 26 Este 0 1018.2 -0.9 58
2017-08-12 17:00:00 27.7 15 Este 28 Este 0 1018.3 -1.2 55
2017-08-12 16:00:00 28.5 13 Este 24 Sudeste 0 1018.6 -1.1 53
2017-08-12 15:00:00 28.3 13 Este 22 Este 0 1019.1 -0.7 52
2017-08-12 14:00:00 28 14 Este 22 Este 0 1019.5 -0.4 46
2017-08-12 13:00:00 27.9 12 Este 24 Norte 0 1019.7 0.1 48
2017-08-12 12:00:00 26.7 10 Este 18 Este 0 1019.8 0.4 58
2017-08-12 11:00:00 26.6 12 Este 22 Este 0 1019.9 0.8 59
2017-08-12 10:00:00 25.9 13 Nordeste 26 Nordeste 0 1019.6 0.9 62
2017-08-12 09:00:00 24.2 15 Nordeste 22 Nordeste 0 1019.4 1 68
2017-08-12 08:00:00 19.2 2 Este 13 Norte 0 1019.1 0.4 82
2017-08-12 07:00:00 18.9 12 Norte 15 Norte 0 1018.7 -0.1 76
2017-08-12 06:00:00 18.7 8 Norte 22 Norte 0 1018.4 -0.5 79
2017-08-12 05:00:00 18.8 7 Norte 21 Norte 0 1018.7 -0.4 80
2017-08-12 04:00:00 19.2 11 Norte 13 Norte 0 1018.8 -0.5 82
2017-08-12 03:00:00 19.7 10 Norte 24 Norte 0 1018.9 -0.1 80
2017-08-12 02:00:00 19 4 Norte 9 Norte 0 1019.1 -0.4 84
2017-08-12 01:00:00 19.3 6 Norte 17 Norte 0 1019.3 0.5 83
2017-08-12 00:00:00 20.3 4 Noroeste 24 Norte 0 1019 0.7 79
2017-08-11 23:00:00 20.8 10 Norte 24 Norte 0 1019.5 1.4 77
2017-08-11 22:00:00 22.9 9 Nordeste 17 Este 0 1018.8 0.8 70
2017-08-11 21:00:00 23.2 10 Este 22 Este 0 1018.3 0.1 68
2017-08-11 20:00:00 24.1 14 Este 22 Norte 0 1018.1 -0.2 64
2017-08-11 19:00:00 24.2 11 Este 22 Este 0 1018 -0.7 64
2017-08-11 18:00:00 25.1 15 Este 26 Este 0 1018.2 -1 61
2017-08-11 17:00:00 25.3 19 Este 30 Este 0 1018.3 -1.1 60
2017-08-11 16:00:00 25.8 19 Este 35 Este 0 1018.7 -0.9 58
2017-08-11 15:00:00 25.8 21 Este 32 Nordeste 0 1019.2 -0.5 59
2017-08-11 14:00:00 26.5 15 Nordeste 26 Este 0 1019.4 -0.3 53
2017-08-11 13:00:00 25.9 17 Este 26 Este 0 1019.6 0.2 54
2017-08-11 12:00:00 25.6 6 Este 30 Norte 0 1019.7 0.4 51
2017-08-11 11:00:00 25.5 13 Norte 32 Norte 0 1019.7 0.9 52
2017-08-11 10:00:00 24.8 13 Nordeste 21 Nordeste 0 1019.4 0.7 59
2017-08-11 09:00:00 23.5 0 Calma 5 Sudeste 0 1019.3 0.7 67
2017-08-11 08:00:00 19.5 4 Norte 13 Norte 0 1018.8 -0.2 78
2017-08-11 07:00:00 17.7 6 Norte 9 Noroeste 0 1018.7 -0.5 81
2017-08-11 06:00:00 17.5 0 Calma 8 Noroeste 0 1018.6 -0.9 82
2017-08-11 05:00:00 17.9 0 Calma 9 Norte 0 1019 -0.8 81
2017-08-11 04:00:00 18.4 4 Noroeste 11 Noroeste 0 1019.2 -0.9 83
2017-08-11 03:00:00 18.7 4 Noroeste 9 Norte 0 1019.5 -0.4 83
2017-08-11 02:00:00 18.9 2 Noroeste 11 Norte 0 1019.8 0.1 86
2017-08-11 01:00:00 19.7 6 Noroeste 21 Noroeste 0 1020.1 1 84
2017-08-11 00:00:00 19.7 9 Noroeste 18 Noroeste 0 1019.9 1 85
2017-08-10 23:00:00 20.6 3 Norte 11 Norte 0 1019.7 1 81
2017-08-10 22:00:00 21.7 5 Norte 11 Norte 0 1019.1 0.4 76
2017-08-10 21:00:00 22.6 8 Este 18 Este 0 1018.9 0.2 72
2017-08-10 20:00:00 23.7 12 Este 22 Este 0 1018.7 0 66
2017-08-10 19:00:00 24 18 Este 28 Este 0 1018.7 -0.4 65
2017-08-10 18:00:00 24.6 20 Este 30 Este 0 1018.7 -0.7 65
2017-08-10 17:00:00 24.6 21 Este 30 Este 0 1018.7 -0.9 64
2017-08-10 16:00:00 25.3 10 Nordeste 33 Norte 0 1019.1 -0.5 54
2017-08-10 15:00:00 24.8 16 Nordeste 33 Norte 0 1019.4 -0.2 58
2017-08-10 14:00:00 24.2 20 Norte 39 Norte 0 1019.6 0.6 58
2017-08-10 13:00:00 23.5 26 Norte 37 Norte 0 1019.6 0.9 62
2017-08-10 12:00:00 21.6 22 Norte 37 Norte 0 1019.6 1.5 73
2017-08-10 11:00:00 20.4 20 Norte 39 Norte 1.7 1019 1.5 83
2017-08-10 10:00:00 20.3 18 Nordeste 41 Nordeste 0.2 1018.7 1.7 81
2017-08-10 09:00:00 20.5 30 Norte 46 Nordeste 0 1018.1 2 73
2017-08-10 08:00:00 20.5 25 Norte 45 Norte 0 1017.5 2.2 81
2017-08-10 07:00:00 21.7 17 Norte 35 Nordeste 0 1017 2.1 76
2017-08-10 06:00:00 21.3 21 Norte 39 Nordeste 0 1016.1 1.7 81
2017-08-10 05:00:00 21 25 Nordeste 41 Nordeste 0 1015.3 1.4 83
2017-08-10 04:00:00 21.1 30 Nordeste 39 Nordeste 0 1014.9 1.9 88
2017-08-10 03:00:00 19.5 30 Nordeste 61 Norte 10.5 1014.4 1.3 92
2017-08-10 02:00:00 21.4 37 Nordeste 72 Norte 2.8 1013.9 0.6 91
2017-08-10 01:00:00 25.3 28 Este 45 Este 0 1013 0.3 79
2017-08-10 00:00:00 25.5 26 Este 39 Este 0 1013.1 1.1 80
2017-08-09 23:00:00 25.4 25 Este 39 Este 0 1013.3 2.1 82
2017-08-09 22:00:00 24.9 23 Este 42 Norte 0 1012.7 2.1 85
2017-08-09 21:00:00 24.6 27 Este 59 Este 1.7 1012 1 89
2017-08-09 20:00:00 21.8 27 Este 63 Norte 17.2 1011.2 -0.1 97
2017-08-09 19:00:00 26.3 34 Este 52 Este 0.1 1010.6 -0.8 77
2017-08-09 18:00:00 26.7 29 Este 45 Este 0 1011 -1 76
2017-08-09 17:00:00 26.8 29 Este 39 Este 0 1011.3 -1.2 76
2017-08-09 16:00:00 27.4 25 Este 39 Este 0 1011.4 -1 73
2017-08-09 15:00:00 27.6 24 Nordeste 37 Este 0 1012 -0.7 72
2017-08-09 14:00:00 27 23 Este 37 Este 0 1012.5 -0.1 73
2017-08-09 13:00:00 27.1 26 Este 39 Este 0 1012.4 0 71
2017-08-09 12:00:00 28 26 Este 37 Este 0 1012.7 0.5 68
2017-08-09 11:00:00 27.3 24 Este 37 Este 0 1012.6 0.3 70
2017-08-09 10:00:00 27.2 22 Este 35 Este 0 1012.4 -0.3 70
2017-08-09 09:00:00 26.4 26 Este 37 Este 0 1012.2 -0.1 72
2017-08-09 08:00:00 25.9 22 Este 35 Este 0 1012.3 0.4 76
2017-08-09 07:00:00 25.6 21 Este 35 Este 0 1012.7 0.7 75
2017-08-09 06:00:00 25.8 18 Este 32 Este 0 1012.3 0.1 76
2017-08-09 05:00:00 26 19 Nordeste 30 Este 0 1011.9 -0.7 79
2017-08-09 04:00:00 25.9 21 Nordeste 32 Nordeste 0 1012 -0.7 81
2017-08-09 03:00:00 26.1 21 Nordeste 35 Nordeste 0 1012.2 -0.2 82
2017-08-09 02:00:00 26.5 23 Nordeste 39 Nordeste 0 1012.6 0.4 83
2017-08-09 01:00:00 26.7 23 Nordeste 37 Nordeste 0 1012.7 1.2 84
2017-08-09 00:00:00 27.4 23 Nordeste 33 Nordeste 0 1012.4 1.8 83
2017-08-08 23:00:00 26.6 18 Norte 28 Nordeste 0 1012.2 2.5 80
2017-08-08 22:00:00 27.2 17 Nordeste 32 Nordeste 0 1011.5 2.5 76
2017-08-08 21:00:00 28.2 18 Nordeste 30 Norte 0 1010.6 1.8 68
2017-08-08 20:00:00 29.5 21 Norte 33 Norte 0 1009.7 0.9 60
2017-08-08 19:00:00 31.1 17 Nordeste 33 Norte 0 1009 0.3 52
2017-08-08 18:00:00 31.6 21 Nordeste 33 Norte 0 1008.8 0 53
2017-08-08 17:00:00 32.8 19 Nordeste 33 Nordeste 0 1008.8 0.3 50
2017-08-08 16:00:00 32.8 25 Nordeste 35 Nordeste 0 1008.7 0.1 51
2017-08-08 15:00:00 31.3 19 Este 33 Norte 0 1008.8 0.2 70
2017-08-08 14:00:00 34.9 19 Noroeste 32 Norte 0 1008.5 0.2 42
2017-08-08 13:00:00 31.6 19 Sudoeste 28 Sur 0 1008.6 0.2 70
2017-08-08 12:00:00 30.1 25 Sudoeste 35 Sudoeste 0 1008.6 0.6 77
2017-08-08 11:00:00 30.1 23 Sudoeste 35 Sudoeste 0 1008.3 0.6 75
2017-08-08 10:00:00 29.5 25 Sudoeste 32 Sudoeste 0 1008.4 0.9 76
2017-08-08 09:00:00 27.8 19 Sudoeste 28 Sudoeste 0 1008 0.4 84
2017-08-08 08:00:00 26.9 16 Sudoeste 22 Sudoeste 0 1007.7 -0.8 88
2017-08-08 07:00:00 26.6 14 Sudoeste 28 Sudoeste 0 1007.5 -0.7 89
2017-08-08 06:00:00 26.9 17 Sudoeste 30 Sudoeste 0 1007.6 -1.2 87
2017-08-08 05:00:00 27.2 22 Sudoeste 33 Sudoeste 0 1008.5 -1.3 87
2017-08-08 04:00:00 27.3 15 Sur 28 Sur 0 1008.2 -1.6 87
2017-08-08 03:00:00 27.1 11 Sudeste 26 Sur 0 1008.8 -2.1 86
2017-08-08 02:00:00 27.2 17 Sur 24 Sur 0 1009.8 -1.2 85
2017-08-08 01:00:00 26.7 6 Sudeste 17 Sur 0 1009.8 -1.8 86
2017-08-08 00:00:00 26.9 9 Sur 18 Sudeste 0 1010.9 0.4 85
2017-08-07 23:00:00 27 9 Sudeste 26 Sudoeste 0 1011 0.6 84
2017-08-07 22:00:00 27.3 12 Sur 22 Sur 0 1011.6 0.9 83
2017-08-07 21:00:00 27.5 12 Sur 21 Sur 0 1010.5 -0.8 81
2017-08-07 20:00:00 28.9 15 Sur 21 Sur 0 1010.4 -1.3 72
2017-08-07 19:00:00 29.8 12 Sur 22 Sur 0 1010.7 -1.9 71
2017-08-07 18:00:00 30.5 14 Sur 24 Sur 0 1011.3 -1.9 67
2017-08-07 17:00:00 30.9 15 Sur 24 Sudoeste 0 1011.7 -1.9 64
2017-08-07 16:00:00 30 15 Sur 24 Sur 0 1012.6 -1.3 69
2017-08-07 15:00:00 30.9 9 Sur 21 Sur 0 1013.2 -0.5 65
2017-08-07 14:00:00 30.3 10 Sudeste 28 Este 0 1013.6 0 67
2017-08-07 13:00:00 29.7 14 Este 26 Sudeste 0 1013.9 -0.1 69
2017-08-07 12:00:00 30.1 13 Este 26 Este 0 1013.7 -0.6 67
2017-08-07 11:00:00 29.5 15 Este 24 Este 0 1013.6 -0.3 68
2017-08-07 10:00:00 28.8 12 Este 18 Norte 0 1014 0.4 70
2017-08-07 09:00:00 27.5 8 Este 13 Norte 0 1014.3 1 77
2017-08-07 08:00:00 25.9 3 Norte 13 Norte 0 1013.9 0.3 82
2017-08-07 07:00:00 25.5 9 Este 15 Este 0 1013.6 -0.2 84
2017-08-07 06:00:00 26.2 11 Este 15 Este 0 1013.3 -0.7 82
2017-08-07 05:00:00 26.3 9 Este 17 Este 0 1013.6 -0.9 81
2017-08-07 04:00:00 26.4 9 Este 18 Norte 0 1013.8 -0.8 81
2017-08-07 03:00:00 26.6 13 Nordeste 18 Nordeste 0 1014 -0.7 81
2017-08-07 02:00:00 26.9 12 Este 21 Este 0 1014.5 0 82
2017-08-07 01:00:00 27 12 Este 22 Este 0 1014.6 0.4 81
2017-08-07 00:00:00 27.2 14 Este 24 Este 0 1014.7 0.9 77
2017-08-06 23:00:00 27.3 12 Nordeste 22 Norte 0 1014.5 0.5 80
2017-08-06 22:00:00 27.4 13 Este 21 Este 0 1014.2 0.1 80
2017-08-06 21:00:00 27.9 12 Este 21 Este 0 1013.8 -0.6 77
2017-08-06 20:00:00 28.8 13 Este 22 Nordeste 0 1014 -0.7 72
2017-08-06 19:00:00 29.4 13 Este 21 Este 0 1014.1 -0.7 70
2017-08-06 18:00:00 29.5 14 Este 24 Este 0 1014.4 -0.6 72
2017-08-06 17:00:00 30.7 15 Este 28 Este 0 1014.7 -0.4 68
2017-08-06 16:00:00 30.7 18 Este 32 Este 0 1014.8 -0.3 69
2017-08-06 15:00:00 30.7 21 Este 33 Este 0 1015 -0.2 68
2017-08-06 14:00:00 30.8 20 Este 30 Este 0 1015.1 0.5 69
2017-08-06 13:00:00 30.6 18 Este 28 Este 0 1015.1 1.3 69
2017-08-06 12:00:00 30.3 17 Nordeste -- -- -- 1015.2 1.4 69
2017-08-06 11:00:00 30 20 Nordeste 33 Este 0 1014.6 1.5 68
2017-08-06 10:00:00 29.6 24 Este 33 Este 0 1013.8 1.7 73
2017-08-06 09:00:00 28.5 19 Este 28 Este 0 1013.8 2.2 81
2017-08-06 08:00:00 26.9 10 Nordeste 30 Norte 0 1013.1 1.4 89
2017-08-06 07:00:00 24.9 11 Norte 17 Norte 0 1012.1 -0.1 92
2017-08-06 06:00:00 26 8 Nordeste 15 Nordeste 0 1011.6 -0.7 92
2017-08-06 05:00:00 26.9 12 Este 18 Este 0 1011.7 -1.1 88
2017-08-06 04:00:00 25.9 9 Nordeste 13 Nordeste 0 1012.2 -0.9 91
2017-08-06 03:00:00 25.4 6 Nordeste 13 Norte 0 1012.3 -0.9 89
2017-08-06 02:00:00 25.2 6 Norte 18 Norte 0 1012.8 0.1 86
2017-08-06 01:00:00 26 8 Norte 24 Norte 0 1013.1 1.3 84
2017-08-06 00:00:00 26.2 9 Noroeste 22 Noroeste 0 1013.2 2 77
2017-08-05 23:00:00 27.3 6 Nordeste 13 Este 0 1012.7 1.5 85
2017-08-05 22:00:00 27.7 8 Nordeste 13 Este 0 1011.8 0.3 84
2017-08-05 21:00:00 28.4 6 Este 13 Norte 0 1011.2 -0.4 82
2017-08-05 20:00:00 29.6 10 Nordeste 21 Este 0 1011.2 -0.8 75
2017-08-05 19:00:00 30.3 12 Este 21 Este 0 1011.5 -1 72
2017-08-05 18:00:00 31 14 Este 24 Este 0 1011.6 -1.4 68
2017-08-05 17:00:00 31.8 15 Este 24 Este 0 1012 -1.5 65
2017-08-05 16:00:00 31.9 15 Este 26 Este 0 1012.5 -1.3 65
2017-08-05 15:00:00 32.3 16 Este 28 Norte 0 1013 -1.1 60
2017-08-05 14:00:00 31.6 10 Este 24 Este 0 1013.5 -0.3 64
2017-08-05 13:00:00 30.8 13 Este 21 Este 0 1013.8 0.3 71
2017-08-05 12:00:00 30.4 10 Nordeste 18 Este 0 1014.1 1 71
2017-08-05 11:00:00 30.1 10 Este 18 Nordeste 0 1013.8 1.1 72
2017-08-05 10:00:00 29.3 11 Nordeste 17 Nordeste 0 1013.5 1 81
2017-08-05 09:00:00 28 11 Nordeste 17 Nordeste 0 1013.1 0.9 83
2017-08-05 08:00:00 24.7 7 Norte 9 Norte 0 1012.7 0.5 68
2017-08-05 07:00:00 23.1 8 Nordeste 9 Norte 0 1012.5 -0.1 77
2017-08-05 06:00:00 22.9 8 Nordeste 9 Nordeste 0 1012.2 -0.3 77
2017-08-05 05:00:00 23.9 8 Norte 11 Norte 0 1012.2 -0.4 82
2017-08-05 04:00:00 24.2 0 Calma 9 Noroeste 0 1012.6 0 73
2017-08-05 03:00:00 24.6 4 Noroeste 11 Norte 0 1012.5 -0.1 70
2017-08-05 02:00:00 24.5 0 Calma 15 Norte 0 1012.6 0 72
2017-08-05 01:00:00 25.7 8 Norte 13 Noroeste 0 1012.6 0.7 73
2017-08-05 00:00:00 26.9 6 Oeste 13 Noroeste 0 1012.6 1.1 85
2017-08-04 23:00:00 27.4 2 Norte 8 Noroeste 0 1012.6 1.3 88
2017-08-04 22:00:00 27.8 5 Este 11 Este 0 1011.9 0.8 87
2017-08-04 21:00:00 28.4 8 Este 17 Este 0 1011.5 0.1 83
2017-08-04 20:00:00 29.9 11 Este 18 Este 0 1011.3 -0.5 77
2017-08-04 19:00:00 31.2 12 Este 21 Este 0 1011.1 -1 71
2017-08-04 18:00:00 32.5 10 Sudeste 21 Sudeste 0 1011.4 -1.2 65
2017-08-04 17:00:00 33.1 10 Sur 21 Sudeste 0 1011.8 -1 61
2017-08-04 16:00:00 33.4 12 Sudeste 22 Sudeste 0 1012.1 -0.9 63
2017-08-04 15:00:00 33.2 9 Sur 21 Sur 0 1012.6 -0.5 61
2017-08-04 14:00:00 33.1 12 Sur 21 Sur 0 1012.8 -0.2 59
2017-08-04 13:00:00 33.4 11 Sur 22 Sudeste 0 1013 0.1 59
2017-08-04 12:00:00 32.5 10 Sur 17 Sudoeste 0 1013.1 0.5 59
2017-08-04 11:00:00 31.7 11 Este 18 Este 0 1013 0.9 60
2017-08-04 10:00:00 30.9 3 Sudoeste 9 Sur 0 1012.9 1.2 57
2017-08-04 09:00:00 29.7 3 Sur 8 Sur 0 1012.6 1.1 61
2017-08-04 08:00:00 26.7 0 Calma 8 Oeste 0 1012.1 0.5 73
2017-08-04 07:00:00 25.6 5 Oeste 11 Sudoeste 0 1011.7 -0.1 81
2017-08-04 06:00:00 25.9 8 Oeste 17 Oeste 0 1011.5 -0.5 83
2017-08-04 05:00:00 26.5 9 Oeste 13 Oeste 0 1011.6 -0.6 78
2017-08-04 04:00:00 25.2 5 Sudoeste 11 Oeste 0 1011.8 -0.8 75
2017-08-04 03:00:00 25.8 5 Sudoeste 15 Noroeste 0 1012 -0.5 76
2017-08-04 02:00:00 26.7 5 Noroeste 18 Noroeste 0 1012.2 -0.2 77
2017-08-04 01:00:00 26.7 2 Noroeste 9 Noroeste 0 1012.6 0.5 73
2017-08-04 00:00:00 27.7 8 Noroeste 15 Noroeste 0 1012.5 1.1 67
2017-08-03 23:00:00 27.9 8 Noroeste 13 Noroeste 0 1012.4 1.4 72
2017-08-03 22:00:00 28.6 6 Este 8 Este 0 1012.1 1 74
2017-08-03 21:00:00 29.6 5 Este 13 Este 0 1011.4 -0.1 72
2017-08-03 20:00:00 31 8 Este 15 Este 0 1011 -1 66
2017-08-03 19:00:00 32.3 7 Sudoeste 15 Sudoeste 0 1011.1 -1.3 60
2017-08-03 18:00:00 32.4 11 Sur 18 Este 0 1011.5 -1.2 59
2017-08-03 17:00:00 32.4 13 Este 21 Este 0 1012 -1.1 59
2017-08-03 16:00:00 32.6 15 Este 24 Este 0 1012.4 -0.8 60
2017-08-03 15:00:00 32.4 14 Este 21 Este 0 1012.7 -0.7 61
2017-08-03 14:00:00 31.7 14 Este 26 Este 0 1013.1 -0.7 67
2017-08-03 13:00:00 33.6 12 Nordeste 18 Nordeste 0 1013.2 -0.3 52
2017-08-03 12:00:00 30.7 15 Sudoeste 22 Sudoeste 0 1013.4 0.2 70
2017-08-03 11:00:00 30.6 14 Sudoeste 21 Sudoeste 0 1013.8 0.7 69
2017-08-03 10:00:00 31.4 14 Sudoeste 22 Sudoeste 0 1013.5 0.6 58
2017-08-03 09:00:00 29.7 6 Sur 11 Sur 0 1013.2 0.5 65
2017-08-03 08:00:00 26.8 3 Oeste 13 Noroeste 0 1013.1 0.4 71
2017-08-03 07:00:00 27.1 5 Norte 11 Nordeste 0 1012.9 -0.2 70
2017-08-03 06:00:00 26.8 7 Nordeste 13 Nordeste 0 1012.7 -0.4 77
2017-08-03 05:00:00 26.8 7 Norte 15 Nordeste 0 1012.7 -0.4 73
2017-08-03 04:00:00 27.4 8 Norte 18 Nordeste 0 1013.1 -0.6 71
2017-08-03 03:00:00 28.2 12 Este 22 Nordeste 0 1013.1 -1.1 74
2017-08-03 02:00:00 29.5 12 Nordeste 24 Este 0 1013.1 0 65
2017-08-03 01:00:00 29.7 9 Este 13 Este 0 1013.7 1.1 56
2017-08-03 00:00:00 31.4 8 Noroeste 28 Noroeste 0 1014.2 1.9 48
2017-08-02 23:00:00 30.5 14 Nordeste 39 Este 0 1013.1 0.5 58
2017-08-02 22:00:00 28.6 15 Este 33 Este 0 1012.6 0 83
2017-08-02 21:00:00 28.8 22 Este 37 Este 0 1012.3 -1.7 85
2017-08-02 20:00:00 30.3 22 Este 33 Este 0 1012.6 -1.4 69
2017-08-02 19:00:00 30.9 25 Nordeste 35 Este 0 1012.6 -1.6 65
2017-08-02 18:00:00 30.7 23 Este 39 Nordeste 0 1014 -0.3 69
2017-08-02 17:00:00 32.2 24 Este 35 Este 0 1014 -1.3 55
2017-08-02 16:00:00 32.7 23 Este 35 Este 0 1014.2 -0.4 57
2017-08-02 15:00:00 33.2 23 Este 32 Este 0 1014.3 -0.4 57
2017-08-02 14:00:00 33.1 15 Este 33 Nordeste 0 1015.3 1.1 56
2017-08-02 13:00:00 31.9 25 Este 35 Este 0 1014.6 0.5 64
2017-08-02 12:00:00 30.6 23 Nordeste 35 Nordeste 0 1014.7 0.8 69
2017-08-02 11:00:00 31.1 20 Este 32 Este 0 1014.2 0.5 67
2017-08-02 10:00:00 32.1 11 Nordeste 22 Norte 0 1014.1 0.4 56
2017-08-02 09:00:00 30.3 12 Norte 18 Norte 0 1013.9 0.1 68
2017-08-02 08:00:00 28.5 14 Norte 18 Norte 0 1013.7 -0.6 82
2017-08-02 07:00:00 28.4 10 Norte 24 Este 0 1013.7 -1.1 80
2017-08-02 06:00:00 28.4 14 Este 28 Este 0 1013.8 -0.9 82
2017-08-02 05:00:00 28.5 14 Este 26 Este 0 1014.3 -0.6 79
2017-08-02 04:00:00 28.4 9 Nordeste 21 Nordeste 0 1014.8 0.2 83
2017-08-02 03:00:00 28.7 7 Nordeste 21 Este 0 1014.7 -0.6 81
2017-08-02 02:00:00 29.3 17 Este 30 Este 0 1014.9 0.4 74
2017-08-02 01:00:00 30.3 20 Este 30 Este 0 1014.6 -0.1 64
2017-08-02 00:00:00 30.1 13 Este 32 Este 0 1015.3 -1.1 61
2017-08-01 23:00:00 29.7 17 Este 28 Este 0 1014.5 2.5 65
2017-08-01 22:00:00 29.1 8 Norte 35 Oeste 0 1014.7 3 56
2017-08-01 21:00:00 29.9 12 Sur 32 Este 0 1016.4 5.1 67
2017-08-01 20:00:00 30.4 21 Nordeste 32 Este 0 1012 1.1 70
2017-08-01 19:00:00 32.9 12 Norte 33 Norte 0 1011.7 0.8 50
2017-08-01 18:00:00 33.1 22 Norte 33 Noroeste 0 1011.3 0.5 61
2017-08-01 17:00:00 32.3 22 Este 32 Este 0 1010.9 -1.1 67
2017-08-01 16:00:00 31.7 17 Este 32 Este 0 1010.9 -1.2 65
2017-08-01 15:00:00 30.6 15 Nordeste 24 Este 0 1010.8 -0.3 72
2017-08-01 14:00:00 29.3 10 Este 26 Este 0 1012 2.3 77
2017-08-01 13:00:00 30.1 14 Sudeste 26 Sudeste 0 1012.1 2.9 76
2017-08-01 12:00:00 31 12 Sudeste 24 Sudeste 0 1011.1 1.8 69
2017-08-01 11:00:00 29.3 7 Este 13 Este 0 1009.7 0.6 74
2017-08-01 10:00:00 28 3 Sudeste 11 Noroeste 0 1009.2 0.5 82
2017-08-01 09:00:00 27.2 3 Oeste 26 Norte 0 1009.3 0.6 85
2017-08-01 08:00:00 26.7 12 Nordeste 21 Oeste 0 1009.1 1 88
2017-08-01 07:00:00 26.7 13 Sudoeste 26 Sudoeste 0 1008.7 1.2 89
2017-08-01 06:00:00 25.5 9 Sudoeste 15 Sudoeste 0 1008.7 0.3 89
2017-08-01 05:00:00 26.6 3 Oeste 37 Oeste 0 1008.1 0.5 88
2017-08-01 04:00:00 27.1 0 Calma 41 Sudoeste 0 1007.5 -1.6 87
2017-08-01 03:00:00 27.6 12 Oeste 33 Oeste 0 1008.4 0.5 83
2017-08-01 02:00:00 27.2 11 Este 18 Sudoeste 0 1007.6 -0.4 84
2017-08-01 01:00:00 27.5 14 Sudoeste 48 Sudoeste 0 1009.1 0.9 84
2017-08-01 00:00:00 27 8 Sudoeste 11 Sudoeste 0 1007.9 1.3 86
2017-07-31 23:00:00 27.2 5 Sudeste 13 Sudeste 0 1008 1.9 86
2017-07-31 22:00:00 27.5 5 Sur 26 Este 0 1008.2 2 87
2017-07-31 21:00:00 27.7 12 Este 22 Norte 0 1006.6 -0.1 87
2017-07-31 20:00:00 28 15 Este 21 Este 0 1006.1 -1 83
2017-07-31 19:00:00 28.7 10 Este 21 Este 0 1006.2 -1.3 80
2017-07-31 18:00:00 29.1 13 Este 21 Este 0 1006.7 -1.1 78
2017-07-31 17:00:00 29.8 14 Este 22 Este 0 1007.1 -1.2 75
2017-07-31 16:00:00 29.7 15 Este 24 Este 0 1007.5 -1.2 75
2017-07-31 15:00:00 29.8 17 Este 26 Este 0 1007.8 -1.1 74
2017-07-31 14:00:00 29.6 17 Este 26 Este 0 1008.3 -0.2 73
2017-07-31 13:00:00 29.4 14 Este 22 Este 0 1008.7 0.2 74
2017-07-31 12:00:00 29.3 14 Este 26 Este 0 1008.9 0.8 75
2017-07-31 11:00:00 28.5 18 Este 30 Este 0 1008.5 0.4 78
2017-07-31 10:00:00 28 12 Este 21 Este 0 1008.5 0.6 80
2017-07-31 09:00:00 27.2 14 Nordeste 21 Nordeste 0 1008.1 0.1 81
2017-07-31 08:00:00 25.4 10 Nordeste 21 Nordeste 0 1008.1 -0.1 92
2017-07-31 07:00:00 23.4 7 Nordeste 21 Norte 0 1007.9 -0.7 94
2017-07-31 06:00:00 23.3 5 Norte 30 Norte 0 1008 -1 94
2017-07-31 05:00:00 24.2 10 Norte 13 Norte 0 1008.2 -1.3 94
2017-07-31 04:00:00 24.1 4 Norte 11 Noroeste 0 1008.6 -1 93
2017-07-31 03:00:00 24.5 4 Noroeste 11 Oeste 0 1009 -0.3 91
2017-07-31 02:00:00 25.1 5 Noroeste 15 Norte 0 1009.5 0 89
2017-07-31 01:00:00 25.7 4 Norte 17 Nordeste 0 1009.6 0.4 91
2017-07-31 00:00:00 25.6 9 Norte 17 Norte 0 1009.3 0.6 89
2017-07-30 23:00:00 26.4 6 Este 9 Este 0 1009.5 0.8 89
2017-07-30 22:00:00 26.7 5 Este 13 Este 0 1009.2 0.3 87
2017-07-30 21:00:00 27.5 9 Este 13 Este 0 1008.7 -0.7 85
2017-07-30 20:00:00 28.2 9 Este 18 Este 0 1008.7 -1.2 82
2017-07-30 19:00:00 29.2 13 Este 21 Este 0 1008.9 -1.7 78
2017-07-30 18:00:00 30.6 12 Este 18 Este 0 1009.4 -1.4 70
2017-07-30 17:00:00 30.2 9 Sudoeste 21 Sudoeste 0 1009.9 -0.8 72
2017-07-30 16:00:00 30 15 Sudoeste 22 Sur 0 1010.6 -0.3 72
2017-07-30 15:00:00 30.3 14 Sudoeste 21 Sur 0 1010.8 -0.5 71
2017-07-30 14:00:00 29.9 12 Sudoeste 21 Sudoeste 0 1010.7 -0.7 72
2017-07-30 13:00:00 29.7 12 Sudoeste 22 Sudoeste 0 1010.9 -0.6 70
2017-07-30 12:00:00 29.2 14 Sudoeste 21 Sudoeste 0 1011.3 -0.2 72
2017-07-30 11:00:00 28.4 9 Sur 15 Sur 0 1011.4 0 75
2017-07-30 10:00:00 27.4 8 Sudoeste 13 Sur 0 1011.5 0.7 78
2017-07-30 09:00:00 26.7 4 Sur 11 Noroeste 0 1011.5 0.7 83
2017-07-30 08:00:00 23.2 6 Norte 11 Norte 0 1011.4 0.4 91
2017-07-30 07:00:00 22.1 0 Calma 13 Norte 0 1010.8 -0.6 94
2017-07-30 06:00:00 22.8 5 Norte 11 Norte 0 1010.8 -1 93
2017-07-30 05:00:00 23.2 8 Norte 11 Norte 0 1011 -1.3 92
2017-07-30 04:00:00 23.3 4 Norte 8 Norte 0 1011.4 -1.3 92
2017-07-30 03:00:00 23.6 2 Norte 11 Noroeste 0 1011.8 -0.9 91
2017-07-30 02:00:00 24.1 3 Noroeste 8 Noroeste 0 1012.3 -0.4 89
2017-07-30 01:00:00 25.8 5 Sudeste 13 Sudeste 0 1012.7 0.3 86
2017-07-30 00:00:00 26.5 7 Este 17 Este 0 1012.7 0.5 83
2017-07-29 23:00:00 26.7 11 Este 17 Este 0 1012.7 0.5 80
2017-07-29 22:00:00 26.9 10 Este 15 Este 0 1012.4 0.2 80
2017-07-29 21:00:00 27.7 12 Este 18 Este 0 1012.2 -0.5 76
2017-07-29 20:00:00 28.8 12 Este 18 Este 0 1012.2 -0.8 73
2017-07-29 19:00:00 29.5 12 Este 21 Este 0 1012.2 -1.4 69
2017-07-29 18:00:00 30.2 13 Este 21 Este 0 1012.7 -1.2 65
2017-07-29 17:00:00 31 15 Este 22 Este 0 1013 -1.3 61
2017-07-29 16:00:00 31.1 14 Este 22 Este 0 1013.6 -1.1 59
2017-07-29 15:00:00 30.9 13 Este 22 Este 0 1013.9 -0.9 59
2017-07-29 14:00:00 30.6 12 Este 21 Nordeste 0 1014.3 -0.5 61
2017-07-29 13:00:00 29.4 14 Este 21 Este 0 1014.7 -0.1 71
2017-07-29 12:00:00 29.2 12 Este 18 Norte 0 1014.8 0.6 73
2017-07-29 11:00:00 28.1 12 Este 21 Este 0 1014.8 1.1 79
2017-07-29 10:00:00 27.8 12 Este 18 Este 0 1014.8 1.3 80
2017-07-29 09:00:00 26.9 12 Nordeste 18 Nordeste 0 1014.2 0.9 82
2017-07-29 08:00:00 23.8 5 Nordeste 17 Norte 0 1013.7 0.4 79
2017-07-29 07:00:00 22.1 12 Norte 15 Norte 0 1013.5 0.2 85
2017-07-29 06:00:00 22.8 9 Norte 13 Norte 0 1013.3 -0.3 86
2017-07-29 05:00:00 22.7 6 Norte 21 Norte 0 1013.3 -0.5 86
2017-07-29 04:00:00 23.5 10 Norte 17 Norte 0 1013.3 -0.7 81
2017-07-29 03:00:00 23.5 8 Norte 15 Norte 0 1013.6 -0.4 82
2017-07-29 02:00:00 24 7 Norte 22 Norte 0 1013.8 -0.1 83
2017-07-29 01:00:00 24.6 8 Norte 26 Noroeste 0 1014 0.7 80
2017-07-29 00:00:00 25.3 8 Norte 15 Norte 0 1014 1.2 79
2017-07-28 23:00:00 26.5 9 Nordeste 17 Nordeste 0 1013.9 1.5 81
2017-07-28 22:00:00 26.9 10 Nordeste 15 Este 0 1013.3 0.7 79
2017-07-28 21:00:00 27.6 9 Nordeste 18 Este 0 1012.8 -0.2 78
2017-07-28 20:00:00 28.7 10 Este 18 Nordeste 0 1012.4 -0.7 74
2017-07-28 19:00:00 29.2 14 Nordeste 22 Este 0 1012.6 -0.7 71
2017-07-28 18:00:00 30 13 Este 24 Este 0 1013 -0.6 68
2017-07-28 17:00:00 30.1 18 Este 28 Este 0 1013.1 -0.7 70
2017-07-28 16:00:00 30.1 21 Este 28 Este 0 1013.3 -0.5 68
2017-07-28 15:00:00 30.3 16 Este 24 Este 0 1013.6 -0.2 67
2017-07-28 14:00:00 30.1 14 Este 24 Este 0 1013.8 0 67
2017-07-28 13:00:00 30.8 15 Este 24 Este 0 1013.8 0 64
2017-07-28 12:00:00 30.5 14 Nordeste 21 Este 0 1013.8 0.3 66
2017-07-28 11:00:00 29.2 11 Este 21 Sudeste 0 1013.8 1 72
2017-07-28 10:00:00 28.5 11 Este 17 Este 0 1013.8 1.4 75
2017-07-28 09:00:00 27.3 7 Este 13 Nordeste 0 1013.5 1.5 82
2017-07-28 08:00:00 23.8 0 Calma 13 Norte 0 1012.8 0.9 86
2017-07-28 07:00:00 22.9 6 Norte 13 Norte 0 1012.4 0.4 94
2017-07-28 06:00:00 23 9 Norte 11 Norte 0 1012 -0.2 94
2017-07-28 05:00:00 22.9 0 Calma 5 Sur 0 1011.9 -0.4 90
2017-07-28 04:00:00 23.1 5 Noroeste 8 Noroeste 0 1012 -0.3 90
2017-07-28 03:00:00 23.5 5 Norte 9 Norte 0 1012.2 0 88
2017-07-28 02:00:00 24.3 2 Sur 9 Sur 0 1012.3 -0.1 87
2017-07-28 01:00:00 25 8 Sur 11 Sur 0 1012.3 0.2 84
2017-07-28 00:00:00 25.7 9 Sur 15 Sur 0 1012.2 0.6 82
2017-07-27 23:00:00 25.8 9 Sur 17 Sur 0 1012.4 0.9 80
2017-07-27 22:00:00 26.2 12 Sur 22 Sur 0 1012.1 0.4 76
2017-07-27 21:00:00 27.1 14 Sur 22 Sur 0 1011.6 -0.6 70
2017-07-27 20:00:00 28.3 15 Sur 22 Sur 0 1011.5 -1.1 70
2017-07-27 19:00:00 29.1 13 Sur 24 Sur 0 1011.7 -1.3 65
2017-07-27 18:00:00 29.5 16 Sur 30 Sudoeste 0 1012.2 -1.3 67
2017-07-27 17:00:00 29 18 Sur 30 Sudoeste 0 1012.6 -1.1 69
2017-07-27 16:00:00 28.8 20 Sudoeste 30 Sudoeste 0 1013 -1 68
2017-07-27 15:00:00 28.9 21 Sudoeste 30 Sur 0 1013.5 -0.7 68
2017-07-27 14:00:00 29 22 Sur 32 Sudoeste 0 1013.7 -0.5 69
2017-07-27 13:00:00 28.9 22 Sur 30 Sur 0 1014 -0.1 69
2017-07-27 12:00:00 28.7 19 Sur 30 Sudoeste 0 1014.2 0.4 70
2017-07-27 11:00:00 28 19 Sur 28 Sur 0 1014.2 0.7 73
2017-07-27 10:00:00 27.1 17 Sudoeste 24 Sudoeste 0 1014.1 0.8 75
2017-07-27 09:00:00 26.5 5 Sur 8 Sur 0 1013.8 0.6 78
2017-07-27 08:00:00 23.8 0 Calma 13 Norte 0 1013.5 0.6 87
2017-07-27 07:00:00 21.6 5 Norte 15 Noroeste 0 1013.3 0.4 92
2017-07-27 06:00:00 21.4 8 Norte 11 Norte 0 1013.2 0.1 88
2017-07-27 05:00:00 21.4 6 Nordeste 8 Nordeste 0 1012.9 -0.4 90
2017-07-27 04:00:00 21.5 3 Norte 8 Este 0 1012.9 -0.7 89
2017-07-27 03:00:00 21.1 0 Calma 8 Noroeste 0 1013.1 -0.6 88
2017-07-27 02:00:00 22 5 Oeste 9 Oeste 0 1013.3 -0.2 86
2017-07-27 01:00:00 21.9 0 Calma 13 Oeste 0 1013.6 0.6 83
2017-07-27 00:00:00 22.7 6 Noroeste 15 Noroeste 0 1013.7 1.4 79
2017-07-26 23:00:00 23.1 7 Noroeste 11 Noroeste 0 1013.5 1.5 76
2017-07-26 22:00:00 24 0 Calma 11 Este 0 1013 1.2 74
2017-07-26 21:00:00 25.1 5 Este 13 Norte 0 1012.3 0.3 70
2017-07-26 20:00:00 25.7 9 Este 21 Este 0 1012 -0.4 67
2017-07-26 19:00:00 26.5 13 Este 22 Este 0 1011.8 -0.8 64
2017-07-26 18:00:00 27.5 15 Este 24 Este 0 1012 -1 60
2017-07-26 17:00:00 27.7 15 Este 24 Este 0 1012.4 -0.9 59
2017-07-26 16:00:00 27.5 16 Este 26 Norte 0 1012.6 -0.7 59
2017-07-26 15:00:00 27.4 16 Este 26 Este 0 1013 -0.2 58
2017-07-26 14:00:00 27.2 16 Este 26 Este 0 1013.3 0.3 59
2017-07-26 13:00:00 26.8 15 Este 28 Este 0 1013.3 0.4 62
2017-07-26 12:00:00 27.4 19 Este 26 Norte 0 1013.2 0.7 62
2017-07-26 11:00:00 27 8 Sur 15 Sur 0 1013 0.8 69
2017-07-26 10:00:00 26 12 Sudoeste 21 Sudoeste 0 1012.9 1.1 72
2017-07-26 09:00:00 25.5 12 Sudoeste 22 Sudoeste 0 1012.5 0.7 76
2017-07-26 08:00:00 25.2 12 Sudoeste 17 Sudoeste 0 1012.2 0.4 76
2017-07-26 07:00:00 24.2 10 Sur 15 Sur 0 1011.8 -0.3 79
2017-07-26 06:00:00 24.2 10 Sur 15 Sur 0 1011.8 -0.5 80
2017-07-26 05:00:00 24.6 12 Sur 18 Sur 0 1011.8 -0.8 78
2017-07-26 04:00:00 24.5 7 Sudeste 15 Sudeste 0 1012.1 -0.8 79
2017-07-26 03:00:00 25 9 Sudeste 15 Sur 0 1012.3 -0.4 77
2017-07-26 02:00:00 24.5 6 Sudeste 13 Sur 0 1012.6 0.2 78
2017-07-26 01:00:00 25 7 Sur 17 Sur 0 1012.9 1.1 77
2017-07-26 00:00:00 25.5 7 Sudeste 18 Sudeste 0 1012.7 1.1 75
2017-07-25 23:00:00 25.6 9 Sudeste 21 Sudeste 0 1012.4 0.9 74
2017-07-25 22:00:00 25.5 9 Sudeste 24 Sudeste 0 1011.8 0.2 72
2017-07-25 21:00:00 25.8 15 Este 26 Este 0 1011.6 0.1 72
2017-07-25 20:00:00 26.2 17 Este 33 Este 0 1011.5 -0.6 71
2017-07-25 19:00:00 26.8 16 Este 35 Este 0 1011.6 -0.9 70
2017-07-25 18:00:00 28.4 22 Este 32 Este 0 1011.5 -1.4 64
2017-07-25 17:00:00 29 20 Este 32 Este 0 1012.1 -1.1 63
2017-07-25 16:00:00 28.9 22 Este 33 Este 0 1012.5 -1 63
2017-07-25 15:00:00 28.1 22 Nordeste 37 Este 0 1012.9 -0.6 63
2017-07-25 14:00:00 28.3 24 Este 37 Este 0 1013.2 -- 60
2017-07-25 13:00:00 28.3 24 Este 33 Este 0 1013.5 0.2 58
2017-07-25 12:00:00 28.5 15 Nordeste 37 Nordeste 0 1013.5 0.3 48
2017-07-25 11:00:00 28 23 Nordeste 39 Nordeste 0 -- -- 46
2017-07-25 10:00:00 26.9 27 Norte 39 Nordeste 0 1013.3 0.5 51
2017-07-25 09:00:00 26.3 22 Norte 37 Nordeste 0 1013.2 0.4 53
2017-07-25 08:00:00 25.2 19 Nordeste 26 Norte 0 1013.1 0.1 61
2017-07-25 07:00:00 24.7 13 Nordeste 22 Nordeste 0 1012.8 -0.5 63
2017-07-25 06:00:00 25.1 13 Nordeste 24 Norte 0 1012.8 -0.9 64
2017-07-25 05:00:00 25.5 3 Nordeste 11 Nordeste 0 1013 -0.9 63
2017-07-25 04:00:00 24.1 4 Sudeste 11 Norte 0 1013.3 -0.7 84
2017-07-25 03:00:00 24.2 10 Norte 17 Norte 0 1013.7 -0.2 78
2017-07-25 02:00:00 23.7 5 Noroeste 8 Noroeste 0 1013.9 0 81
2017-07-25 01:00:00 24.8 3 Noroeste 11 Oeste 0 1014 0.7 83
2017-07-25 00:00:00 25.6 7 Noroeste 17 Oeste 0 1013.9 0.8 82
2017-07-24 23:00:00 26.3 8 Oeste 15 Sudoeste 0 1013.9 1.1 80
2017-07-24 22:00:00 26.4 12 Sudoeste 15 Sudoeste 0 1013.3 0.4 79
2017-07-24 21:00:00 27.1 9 Sudoeste 13 Sudoeste 0 1013.1 0.3 77
2017-07-24 20:00:00 27.6 6 Sudeste 17 Este 0 1012.8 -0.3 72
2017-07-24 19:00:00 28.6 11 Este 24 Este 0 1012.9 -0.5 70
2017-07-24 18:00:00 29.5 15 Este 24 Este 0 1012.8 -0.8 65
2017-07-24 17:00:00 29.7 17 Este 26 Norte 0 1013.1 -0.9 64
2017-07-24 16:00:00 30.3 12 Sur 28 Sur 0 1013.4 -1.1 64
2017-07-24 15:00:00 28.1 21 Sudoeste 30 Sur 0 1013.6 -1 72
2017-07-24 14:00:00 29.8 20 Sudoeste 30 Sudoeste 0 1014 -0.7 66
2017-07-24 13:00:00 28.6 16 Sudoeste 24 Sur 0 1014.5 0 70
2017-07-24 12:00:00 29.7 15 Sur 22 Sur 0 1014.6 0.6 65
2017-07-24 11:00:00 27.3 13 Sur 21 Sudoeste 0 1014.7 0.8 80
2017-07-24 10:00:00 27.8 9 Sur 13 Sur 0 1014.5 0.7 73
2017-07-24 09:00:00 26.3 6 Sur 9 Sudeste 0 1014 0.3 82
2017-07-24 08:00:00 23.9 6 Norte 13 Noroeste 0 1013.9 0.1 90
2017-07-24 07:00:00 22.2 4 Norte 13 Norte 0 1013.8 -0.2 93
2017-07-24 06:00:00 22.4 3 Noroeste 5 Noroeste 0 1013.7 -0.6 92
2017-07-24 05:00:00 22.5 4 Sudoeste 13 Noroeste 0 1013.8 -1 92
2017-07-24 04:00:00 23.3 7 Noroeste 18 Noroeste 0 1014 -1.2 90
2017-07-24 03:00:00 23.4 8 Noroeste 15 Noroeste 0 1014.3 -0.8 88
2017-07-24 02:00:00 24 4 Norte 32 Norte 0 1014.8 -0.2 88
2017-07-24 01:00:00 24.8 5 Noroeste 18 Noroeste 0 1015.2 1 86
2017-07-24 00:00:00 25.2 0 Calma 11 Este 0 1015.1 0.8 86
2017-07-23 23:00:00 26 8 Este 17 Este 0 1015 0.7 84
2017-07-23 22:00:00 26.2 11 Este 21 Este 0 1014.2 0.1 84
2017-07-23 21:00:00 27 14 Este 21 Este 0 1014.3 0.3 81
2017-07-23 20:00:00 27.7 15 Este 21 Este 0 1014.3 0.3 77
2017-07-23 19:00:00 28.7 12 Este 18 Este 0 1014.1 -0.8 72
2017-07-23 18:00:00 28.7 12 Este 21 Sudeste 0 1014 -2.1 69
2017-07-23 17:00:00 28.8 14 Nordeste 22 Este 0 1014 -2.8 71
2017-07-23 16:00:00 29.5 14 Este 24 Este 0 1014.9 -1.9 66
2017-07-23 15:00:00 30.3 12 Este 18 Este 0 1016.1 -0.4 57
2017-07-23 14:00:00 28.6 6 Este 35 Nordeste 0 1016.8 0.6 71
2017-07-23 13:00:00 28.4 10 Este 30 Nordeste 0 1016.8 0.5 74
2017-07-23 12:00:00 27.8 12 Este 33 Este 0 1016.5 1.7 76
2017-07-23 11:00:00 27.3 6 Este 28 Este 0 1016.2 0.7 78
2017-07-23 10:00:00 26.6 10 Este 32 Nordeste 0 1016.3 1.4 82
2017-07-23 09:00:00 26 19 Este 37 Este 0 1014.8 0.8 83
2017-07-23 08:00:00 25.2 9 Nordeste 17 Nordeste 0 1015.5 2.1 84
2017-07-23 07:00:00 23.9 5 Noroeste 15 Norte 0 1014.9 1.2 85
2017-07-23 06:00:00 23.1 0 Calma 11 Norte 0 1014 0.5 85
2017-07-23 05:00:00 23.1 5 Nordeste 17 Norte 0 1013.4 -0.9 82
2017-07-23 04:00:00 23.6 11 Norte 15 Noroeste 0 1013.7 -0.6 86
2017-07-23 03:00:00 23 12 Norte 18 Noroeste 0 1013.5 -0.6 89
2017-07-23 02:00:00 23.6 4 Norte 22 Noroeste 0 1014.3 0.4 88
2017-07-23 01:00:00 24.8 7 Noroeste 11 Sur 0 1014.3 0.9 85
2017-07-23 00:00:00 25 8 Sudoeste 13 Sudeste 0 1014.1 1.2 86
2017-07-22 23:00:00 25.1 8 Sur 13 Sur 0 1013.9 1.7 82
2017-07-22 22:00:00 25.4 8 Sudeste 18 Sur 0 1013.4 1.5 76
2017-07-22 21:00:00 26.4 9 Sudeste 17 Sudeste 0 1012.9 1.1 71
2017-07-22 20:00:00 27.7 11 Sudeste 18 Sur 0 1012.2 -0.1 65
2017-07-22 19:00:00 29.1 12 Sur 17 Sur 0 1011.9 -0.6 64
2017-07-22 18:00:00 28.6 10 Sudoeste 22 Sur 0 1011.8 -0.9 66
2017-07-22 17:00:00 28.8 13 Sur 22 Sudoeste 0 1012.3 -0.4 66
2017-07-22 16:00:00 28.6 14 Sudoeste 24 Sudoeste 0 1012.5 -0.4 67
2017-07-22 15:00:00 28.8 17 Sudoeste 24 Sur 0 1012.7 -0.3 67
2017-07-22 14:00:00 29.7 10 Sudeste 26 Este 0 1012.7 -0.1 61
2017-07-22 13:00:00 28.4 13 Este 24 Este 0 1012.9 0.4 66
2017-07-22 12:00:00 28.2 14 Este 24 Norte 0 1013 1.2 67
2017-07-22 11:00:00 27.9 14 Este 22 Este 0 1012.8 1.5 71
2017-07-22 10:00:00 27 12 Este 18 Este 0 1012.5 1.4 74
2017-07-22 09:00:00 25.9 8 Este 21 Este 0 1011.8 1.8 79
2017-07-22 08:00:00 24.2 5 Norte 11 Norte 0 1011.3 1.8 86
2017-07-22 07:00:00 22.9 9 Norte 13 Este 0 1011.1 0.9 90
2017-07-22 06:00:00 22.1 3 Norte 11 Norte 0 1010 -0.5 89
2017-07-22 05:00:00 22.8 9 Noroeste 13 Noroeste 0 1009.5 -1.7 88
2017-07-22 04:00:00 24.3 7 Noroeste 11 Oeste 0 1010.2 -0.8 84
2017-07-22 03:00:00 25.6 8 Sudoeste 18 Sur 0 1010.5 -0.4 80
2017-07-22 02:00:00 25.7 11 Sur 15 Sur 0 1011.2 0.8 82
2017-07-22 01:00:00 25.2 7 Sudoeste 13 Sur 0 1011 1.2 84
2017-07-22 00:00:00 25.2 7 Sudoeste 13 Sudoeste 0 1010.9 1.8 84
2017-07-21 23:00:00 25.5 9 Sudoeste 17 Sudoeste 0 1010.4 1.7 84
2017-07-21 22:00:00 25.9 12 Sudoeste 18 Sudoeste 0 1009.8 1.2 82
2017-07-21 21:00:00 26.4 12 Sudoeste 22 Sudoeste 0 1009.1 0.7 81
2017-07-21 20:00:00 27.2 18 Sudoeste 28 Sudoeste 0 1008.7 0.3 79
2017-07-21 19:00:00 28.1 21 Sudoeste 32 Sudoeste 0 1008.6 0.1 77
2017-07-21 18:00:00 28.3 22 Sudoeste 32 Sudoeste 0 1008.4 -0.6 73
2017-07-21 17:00:00 28.9 24 Sudoeste 32 Sudoeste 0 1008.4 -1 71
2017-07-21 16:00:00 29.4 24 Sudoeste 32 Sudoeste 0 1008.5 -1.2 69
2017-07-21 15:00:00 29.6 19 Sudoeste 30 Sudoeste 0 1009 -0.7 70
2017-07-21 14:00:00 29.5 17 Sudoeste 26 Sur 0 1009.4 0.6 69
2017-07-21 13:00:00 28.7 10 Este 26 Sudeste 0 1009.7 0.5 70
2017-07-21 12:00:00 29 17 Este 24 Este 0 1009.7 1.1 70
2017-07-21 11:00:00 28.3 17 Este 24 Este 0 1008.8 0.6 73
2017-07-21 10:00:00 28 11 Este 21 Este 0 1009.2 1 75
2017-07-21 09:00:00 27.1 11 Nordeste 18 Nordeste 0 1008.6 0.3 77
2017-07-21 08:00:00 25.4 5 Nordeste 17 Nordeste 0 1008.2 -0.5 84
2017-07-21 07:00:00 23 2 Norte 13 Nordeste 0 1008.2 -0.9 91
2017-07-21 06:00:00 23.3 3 Sudeste 13 Norte 0 1008.3 -0.6 89
2017-07-21 05:00:00 23.5 0 Calma 17 Noroeste 0 1008.7 -0.4 88
2017-07-21 04:00:00 24.1 8 Noroeste 9 Noroeste 0 1009.1 -0.2 86
2017-07-21 03:00:00 24.4 5 Oeste 15 Norte 0 1008.9 -0.4 85
2017-07-21 02:00:00 24.9 4 Noroeste 8 Noroeste 0 1009.1 -0.1 83
2017-07-21 01:00:00 24.3 4 Sudoeste 11 Noroeste 0 1009.3 0.6 81
2017-07-21 00:00:00 25.2 7 Norte 26 Norte 0 1009.3 1.1 78
2017-07-20 23:00:00 26.2 8 Norte 24 Norte 0 1009.2 1.1 75
2017-07-20 22:00:00 26.9 11 Norte 30 Nordeste 0 1008.7 0.6 73
2017-07-20 21:00:00 27.8 5 Nordeste 15 Este 0 1008.2 -0.1 72
2017-07-20 20:00:00 28.3 10 Este 15 Este 0 1008.1 -0.7 72
2017-07-20 19:00:00 29.9 10 Sur 18 Sur 0 1008.1 -0.8 64
2017-07-20 18:00:00 30.7 12 Sur 18 Sur 0 1008.3 -0.9 62
2017-07-20 17:00:00 29.8 9 Sur 21 Sur 0 1008.8 -0.6 62
2017-07-20 16:00:00 30.3 12 Este 24 Sudeste 0 1008.9 -0.6 60
2017-07-20 15:00:00 30.7 8 Sudeste 22 Este 0 1009.2 -0.4 59
2017-07-20 14:00:00 29.4 13 Este 26 Este 0 1009.4 -0.1 65
2017-07-20 13:00:00 29.6 16 Este 24 Este 0 1009.5 -0.1 63
2017-07-20 12:00:00 28.3 13 Este 28 Nordeste 0 1009.6 0.2 70
2017-07-20 11:00:00 27.2 9 Sudoeste 22 Sudoeste 0 1009.5 0.6 80
2017-07-20 10:00:00 27.6 17 Sudoeste 22 Sudoeste 0 1009.6 1.3 78
2017-07-20 09:00:00 27.3 10 Oeste 17 Oeste 0 1009.4 1.4 76
2017-07-20 08:00:00 26.1 8 Oeste 13 Oeste 0 1008.9 0.8 82
2017-07-20 07:00:00 23.9 0 Calma 5 Norte 0 1008.3 0.2 88
2017-07-20 06:00:00 23.6 0 Calma 9 Noroeste 0 1008 -0.4 86
2017-07-20 05:00:00 25 8 Noroeste 15 Sudoeste 0 1008.1 -0.7 82
2017-07-20 04:00:00 25.8 12 Oeste 17 Oeste 0 1008.1 -1 80
2017-07-20 03:00:00 26 6 Noroeste 13 Noroeste 0 1008.4 -0.7 81
2017-07-20 02:00:00 25.9 7 Sudoeste 13 Sudoeste 0 1008.8 -0.7 84
2017-07-20 01:00:00 25.5 9 Sur 17 Sur 0 1009.1 0 86
2017-07-20 00:00:00 25.1 5 Sudeste 13 Sur 0 1009.1 0 89
2017-07-19 23:00:00 26.3 10 Sudeste 17 Este 0 1009.5 0.3 88
2017-07-19 22:00:00 26.2 10 Este 21 Este 0 1009.1 0 89
2017-07-19 21:00:00 26.6 14 Este 24 Este 0 1009.1 -0.5 87
2017-07-19 20:00:00 27.2 15 Este 28 Este 0 1009.2 -0.9 85
2017-07-19 19:00:00 27.8 17 Este 26 Este 0 1009.1 -1.9 82
2017-07-19 18:00:00 28.4 19 Este 28 Este 0 1009.6 -1.8 78
2017-07-19 17:00:00 29 15 Este 26 Este 0 1010.1 -1.8 75
2017-07-19 16:00:00 28.9 14 Nordeste 26 Este 0 1011 -0.6 74
2017-07-19 15:00:00 29.1 18 Este 28 Este 0 1011.4 -0.6 73
2017-07-19 14:00:00 28 17 Este 35 Norte 0 1011.9 0 77
2017-07-19 13:00:00 28.3 24 Nordeste 39 Este 0 1011.6 0.3 75
2017-07-19 12:00:00 27.2 22 Este 35 Este 0 1012 0.7 79
2017-07-19 11:00:00 27.3 24 Este 39 Este 0 1011.9 0.3 77
2017-07-19 10:00:00 27 28 Este 42 Este 0 1011.3 -1.2 75
2017-07-19 09:00:00 26.4 29 Nordeste 41 Nordeste 0 1011.3 -0.4 75
2017-07-19 08:00:00 25.7 15 Nordeste 28 Nordeste 0 1011.6 -0.3 76
2017-07-19 07:00:00 23.6 11 Norte 21 Nordeste 0 1012.5 0.5 82
2017-07-19 06:00:00 25.2 15 Nordeste 26 Nordeste 0 1011.7 -0.2 76
2017-07-19 05:00:00 25 14 Este 28 Este 0 1011.9 -0.7 77
2017-07-19 04:00:00 25.2 17 Nordeste 33 Este 0 1012 -1.6 78
2017-07-19 03:00:00 25.2 23 Este 35 Nordeste 0 1011.9 -2.6 79
2017-07-19 02:00:00 25.6 23 Este 33 Este 0 1012.6 -1.6 77
2017-07-19 01:00:00 25.6 15 Este 30 Este 0 1013.6 0.2 78
2017-07-19 00:00:00 25.5 15 Este 24 Este 0 1014.5 1.8 77